sensor_id;sensor_type;location;lat;lon;timestamp;P1;durP1;ratioP1;P2;durP2;ratioP2
16115;SDS011;8162;47.104;15.432;2024-02-23T00:01:50;0.67;;;0.67;;
16115;SDS011;8162;47.104;15.432;2024-02-23T00:04:51;1.07;;;0.97;;
16115;SDS011;8162;47.104;15.432;2024-02-23T00:07:52;0.83;;;0.83;;
16115;SDS011;8162;47.104;15.432;2024-02-23T00:10:53;1.63;;;0.77;;
16115;SDS011;8162;47.104;15.432;2024-02-23T00:13:54;1.10;;;0.90;;
16115;SDS011;8162;47.104;15.432;2024-02-23T00:16:55;1.50;;;0.90;;
16115;SDS011;8162;47.104;15.432;2024-02-23T00:19:57;0.70;;;0.70;;
16115;SDS011;8162;47.104;15.432;2024-02-23T00:22:58;0.93;;;0.83;;
16115;SDS011;8162;47.104;15.432;2024-02-23T00:25:59;1.00;;;0.70;;
16115;SDS011;8162;47.104;15.432;2024-02-23T00:29:02;3.70;;;0.73;;
16115;SDS011;8162;47.104;15.432;2024-02-23T00:32:03;0.67;;;0.67;;
16115;SDS011;8162;47.104;15.432;2024-02-23T00:35:04;0.80;;;0.80;;
16115;SDS011;8162;47.104;15.432;2024-02-23T00:38:06;2.13;;;0.80;;
16115;SDS011;8162;47.104;15.432;2024-02-23T00:41:07;1.37;;;0.80;;
16115;SDS011;8162;47.104;15.432;2024-02-23T00:44:08;1.40;;;1.10;;
16115;SDS011;8162;47.104;15.432;2024-02-23T00:47:09;0.63;;;0.63;;
16115;SDS011;8162;47.104;15.432;2024-02-23T00:50:10;0.97;;;0.60;;
16115;SDS011;8162;47.104;15.432;2024-02-23T00:53:11;0.50;;;0.50;;
16115;SDS011;8162;47.104;15.432;2024-02-23T00:56:12;0.50;;;0.50;;
16115;SDS011;8162;47.104;15.432;2024-02-23T00:59:14;0.57;;;0.57;;
16115;SDS011;8162;47.104;15.432;2024-02-23T01:02:15;0.77;;;0.77;;
16115;SDS011;8162;47.104;15.432;2024-02-23T01:05:16;1.90;;;0.80;;
16115;SDS011;8162;47.104;15.432;2024-02-23T01:08:17;1.60;;;0.83;;
16115;SDS011;8162;47.104;15.432;2024-02-23T01:11:19;0.60;;;0.60;;
16115;SDS011;8162;47.104;15.432;2024-02-23T01:14:20;0.77;;;0.70;;
16115;SDS011;8162;47.104;15.432;2024-02-23T01:17:21;0.83;;;0.83;;
16115;SDS011;8162;47.104;15.432;2024-02-23T01:20:22;1.63;;;0.70;;
16115;SDS011;8162;47.104;15.432;2024-02-23T01:23:23;1.13;;;0.60;;
16115;SDS011;8162;47.104;15.432;2024-02-23T01:26:24;0.70;;;0.70;;
16115;SDS011;8162;47.104;15.432;2024-02-23T01:29:25;0.93;;;0.70;;
16115;SDS011;8162;47.104;15.432;2024-02-23T01:32:26;2.20;;;0.70;;
16115;SDS011;8162;47.104;15.432;2024-02-23T01:35:28;1.50;;;0.90;;
16115;SDS011;8162;47.104;15.432;2024-02-23T01:38:30;2.87;;;1.97;;
16115;SDS011;8162;47.104;15.432;2024-02-23T01:41:32;3.87;;;0.77;;
16115;SDS011;8162;47.104;15.432;2024-02-23T01:44:33;1.57;;;1.37;;
16115;SDS011;8162;47.104;15.432;2024-02-23T01:47:34;0.87;;;0.87;;
16115;SDS011;8162;47.104;15.432;2024-02-23T01:50:36;0.80;;;0.80;;
16115;SDS011;8162;47.104;15.432;2024-02-23T01:53:37;1.03;;;0.93;;
16115;SDS011;8162;47.104;15.432;2024-02-23T01:56:38;0.90;;;0.90;;
16115;SDS011;8162;47.104;15.432;2024-02-23T01:59:40;0.80;;;0.80;;
16115;SDS011;8162;47.104;15.432;2024-02-23T02:02:41;1.70;;;0.80;;
16115;SDS011;8162;47.104;15.432;2024-02-23T02:05:42;1.03;;;0.90;;
16115;SDS011;8162;47.104;15.432;2024-02-23T02:08:44;1.43;;;1.00;;
16115;SDS011;8162;47.104;15.432;2024-02-23T02:11:46;1.17;;;0.90;;
16115;SDS011;8162;47.104;15.432;2024-02-23T02:14:47;1.83;;;1.10;;
16115;SDS011;8162;47.104;15.432;2024-02-23T02:17:50;3.00;;;1.10;;
16115;SDS011;8162;47.104;15.432;2024-02-23T02:20:52;2.10;;;1.07;;
16115;SDS011;8162;47.104;15.432;2024-02-23T02:23:54;1.10;;;1.00;;
16115;SDS011;8162;47.104;15.432;2024-02-23T02:26:56;0.97;;;0.93;;
16115;SDS011;8162;47.104;15.432;2024-02-23T02:29:57;1.63;;;0.80;;
16115;SDS011;8162;47.104;15.432;2024-02-23T02:32:58;1.20;;;1.00;;
16115;SDS011;8162;47.104;15.432;2024-02-23T02:35:59;0.80;;;0.80;;
16115;SDS011;8162;47.104;15.432;2024-02-23T02:39:00;0.93;;;0.83;;
16115;SDS011;8162;47.104;15.432;2024-02-23T02:42:02;2.53;;;1.10;;
16115;SDS011;8162;47.104;15.432;2024-02-23T02:45:03;1.40;;;1.07;;
16115;SDS011;8162;47.104;15.432;2024-02-23T02:48:04;1.87;;;1.10;;
16115;SDS011;8162;47.104;15.432;2024-02-23T02:51:05;1.47;;;0.73;;
16115;SDS011;8162;47.104;15.432;2024-02-23T02:54:06;0.80;;;0.80;;
16115;SDS011;8162;47.104;15.432;2024-02-23T02:57:07;1.77;;;0.87;;
16115;SDS011;8162;47.104;15.432;2024-02-23T03:00:09;1.17;;;1.00;;
16115;SDS011;8162;47.104;15.432;2024-02-23T03:03:11;1.97;;;0.97;;
16115;SDS011;8162;47.104;15.432;2024-02-23T03:06:13;0.90;;;0.80;;
16115;SDS011;8162;47.104;15.432;2024-02-23T03:09:14;0.80;;;0.80;;
16115;SDS011;8162;47.104;15.432;2024-02-23T03:12:15;0.80;;;0.80;;
16115;SDS011;8162;47.104;15.432;2024-02-23T03:15:16;0.80;;;0.80;;
16115;SDS011;8162;47.104;15.432;2024-02-23T03:18:17;0.83;;;0.83;;
16115;SDS011;8162;47.104;15.432;2024-02-23T03:21:18;1.10;;;1.00;;
16115;SDS011;8162;47.104;15.432;2024-02-23T03:24:19;2.57;;;0.90;;
16115;SDS011;8162;47.104;15.432;2024-02-23T03:27:20;0.97;;;0.90;;
16115;SDS011;8162;47.104;15.432;2024-02-23T03:30:22;1.07;;;1.00;;
16115;SDS011;8162;47.104;15.432;2024-02-23T03:33:23;1.17;;;0.80;;
16115;SDS011;8162;47.104;15.432;2024-02-23T03:36:24;1.13;;;1.03;;
16115;SDS011;8162;47.104;15.432;2024-02-23T03:39:25;0.60;;;0.60;;
16115;SDS011;8162;47.104;15.432;2024-02-23T03:42:26;1.03;;;0.93;;
16115;SDS011;8162;47.104;15.432;2024-02-23T03:45:27;0.80;;;0.80;;
16115;SDS011;8162;47.104;15.432;2024-02-23T03:48:28;3.63;;;1.13;;
16115;SDS011;8162;47.104;15.432;2024-02-23T03:51:29;0.80;;;0.80;;
16115;SDS011;8162;47.104;15.432;2024-02-23T03:54:32;1.90;;;1.00;;
16115;SDS011;8162;47.104;15.432;2024-02-23T03:57:34;1.43;;;0.90;;
16115;SDS011;8162;47.104;15.432;2024-02-23T04:00:35;1.23;;;1.10;;
16115;SDS011;8162;47.104;15.432;2024-02-23T04:03:36;1.23;;;1.00;;
16115;SDS011;8162;47.104;15.432;2024-02-23T04:06:37;1.00;;;0.90;;
16115;SDS011;8162;47.104;15.432;2024-02-23T04:09:38;2.27;;;1.40;;
16115;SDS011;8162;47.104;15.432;2024-02-23T04:12:39;1.17;;;0.70;;
16115;SDS011;8162;47.104;15.432;2024-02-23T04:15:40;1.10;;;1.00;;
16115;SDS011;8162;47.104;15.432;2024-02-23T04:18:41;0.90;;;0.90;;
16115;SDS011;8162;47.104;15.432;2024-02-23T04:21:42;2.30;;;1.13;;
16115;SDS011;8162;47.104;15.432;2024-02-23T04:24:43;1.10;;;1.00;;
16115;SDS011;8162;47.104;15.432;2024-02-23T04:27:44;0.80;;;0.80;;
16115;SDS011;8162;47.104;15.432;2024-02-23T04:30:45;0.70;;;0.70;;
16115;SDS011;8162;47.104;15.432;2024-02-23T04:33:46;0.80;;;0.80;;
16115;SDS011;8162;47.104;15.432;2024-02-23T04:36:47;1.10;;;1.00;;
16115;SDS011;8162;47.104;15.432;2024-02-23T04:39:48;1.10;;;1.00;;
16115;SDS011;8162;47.104;15.432;2024-02-23T04:42:49;1.27;;;1.00;;
16115;SDS011;8162;47.104;15.432;2024-02-23T04:45:51;0.80;;;0.80;;
16115;SDS011;8162;47.104;15.432;2024-02-23T04:48:52;0.70;;;0.70;;
16115;SDS011;8162;47.104;15.432;2024-02-23T04:51:53;0.63;;;0.63;;
16115;SDS011;8162;47.104;15.432;2024-02-23T04:54:54;1.10;;;1.00;;
16115;SDS011;8162;47.104;15.432;2024-02-23T04:57:55;1.60;;;0.90;;
16115;SDS011;8162;47.104;15.432;2024-02-23T05:00:56;1.33;;;1.07;;
16115;SDS011;8162;47.104;15.432;2024-02-23T05:03:57;0.70;;;0.70;;
16115;SDS011;8162;47.104;15.432;2024-02-23T05:06:59;1.30;;;0.97;;
16115;SDS011;8162;47.104;15.432;2024-02-23T05:10:00;0.93;;;0.93;;
16115;SDS011;8162;47.104;15.432;2024-02-23T05:13:01;2.23;;;1.03;;
16115;SDS011;8162;47.104;15.432;2024-02-23T05:16:02;1.33;;;1.00;;
16115;SDS011;8162;47.104;15.432;2024-02-23T05:19:03;4.00;;;0.87;;
16115;SDS011;8162;47.104;15.432;2024-02-23T05:22:04;0.70;;;0.70;;
16115;SDS011;8162;47.104;15.432;2024-02-23T05:25:05;1.50;;;1.03;;
16115;SDS011;8162;47.104;15.432;2024-02-23T05:28:07;1.90;;;0.80;;
16115;SDS011;8162;47.104;15.432;2024-02-23T05:31:09;2.63;;;0.80;;
16115;SDS011;8162;47.104;15.432;2024-02-23T05:34:10;1.20;;;0.80;;
16115;SDS011;8162;47.104;15.432;2024-02-23T05:37:11;2.00;;;1.13;;
16115;SDS011;8162;47.104;15.432;2024-02-23T05:40:12;0.80;;;0.80;;
16115;SDS011;8162;47.104;15.432;2024-02-23T05:43:13;2.43;;;1.00;;
16115;SDS011;8162;47.104;15.432;2024-02-23T05:46:14;1.33;;;0.87;;
16115;SDS011;8162;47.104;15.432;2024-02-23T05:49:15;1.90;;;1.10;;
16115;SDS011;8162;47.104;15.432;2024-02-23T05:52:16;1.57;;;0.97;;
16115;SDS011;8162;47.104;15.432;2024-02-23T05:55:17;0.90;;;0.90;;
16115;SDS011;8162;47.104;15.432;2024-02-23T05:58:18;1.40;;;1.10;;
16115;SDS011;8162;47.104;15.432;2024-02-23T06:01:21;2.93;;;1.10;;
16115;SDS011;8162;47.104;15.432;2024-02-23T06:04:22;1.47;;;1.30;;
16115;SDS011;8162;47.104;15.432;2024-02-23T06:07:24;1.77;;;1.60;;
16115;SDS011;8162;47.104;15.432;2024-02-23T06:10:31;1.90;;;1.67;;
16115;SDS011;8162;47.104;15.432;2024-02-23T06:13:32;1.70;;;1.60;;
16115;SDS011;8162;47.104;15.432;2024-02-23T06:16:34;1.50;;;1.13;;
16115;SDS011;8162;47.104;15.432;2024-02-23T06:19:34;1.20;;;1.10;;
16115;SDS011;8162;47.104;15.432;2024-02-23T06:22:35;1.60;;;1.13;;
16115;SDS011;8162;47.104;15.432;2024-02-23T06:25:36;1.73;;;1.17;;
16115;SDS011;8162;47.104;15.432;2024-02-23T06:28:37;2.20;;;1.00;;
16115;SDS011;8162;47.104;15.432;2024-02-23T06:31:41;2.40;;;1.33;;
16115;SDS011;8162;47.104;15.432;2024-02-23T06:34:42;2.00;;;1.37;;
16115;SDS011;8162;47.104;15.432;2024-02-23T06:37:43;0.80;;;0.80;;
16115;SDS011;8162;47.104;15.432;2024-02-23T06:40:43;1.67;;;1.13;;
16115;SDS011;8162;47.104;15.432;2024-02-23T06:43:44;1.60;;;1.40;;
16115;SDS011;8162;47.104;15.432;2024-02-23T06:46:45;1.40;;;1.20;;
16115;SDS011;8162;47.104;15.432;2024-02-23T06:49:46;1.80;;;1.40;;
16115;SDS011;8162;47.104;15.432;2024-02-23T06:52:47;2.23;;;1.50;;
16115;SDS011;8162;47.104;15.432;2024-02-23T06:55:49;1.70;;;1.60;;
16115;SDS011;8162;47.104;15.432;2024-02-23T06:58:50;1.40;;;1.30;;
16115;SDS011;8162;47.104;15.432;2024-02-23T07:01:50;1.90;;;1.20;;
16115;SDS011;8162;47.104;15.432;2024-02-23T07:04:52;0.93;;;0.93;;
16115;SDS011;8162;47.104;15.432;2024-02-23T07:07:54;1.60;;;1.10;;
16115;SDS011;8162;47.104;15.432;2024-02-23T07:10:55;1.30;;;1.20;;
16115;SDS011;8162;47.104;15.432;2024-02-23T07:13:56;2.90;;;1.47;;
16115;SDS011;8162;47.104;15.432;2024-02-23T07:16:56;2.57;;;1.77;;
16115;SDS011;8162;47.104;15.432;2024-02-23T07:19:57;3.93;;;1.30;;
16115;SDS011;8162;47.104;15.432;2024-02-23T07:23:05;1.40;;;1.17;;
16115;SDS011;8162;47.104;15.432;2024-02-23T07:26:06;1.33;;;1.23;;
16115;SDS011;8162;47.104;15.432;2024-02-23T07:29:07;1.87;;;1.30;;
16115;SDS011;8162;47.104;15.432;2024-02-23T07:32:08;2.07;;;1.87;;
16115;SDS011;8162;47.104;15.432;2024-02-23T07:35:09;2.13;;;2.00;;
16115;SDS011;8162;47.104;15.432;2024-02-23T07:38:09;2.00;;;1.77;;
16115;SDS011;8162;47.104;15.432;2024-02-23T07:41:11;2.10;;;1.60;;
16115;SDS011;8162;47.104;15.432;2024-02-23T07:44:13;3.23;;;1.70;;
16115;SDS011;8162;47.104;15.432;2024-02-23T07:47:14;4.70;;;1.80;;
16115;SDS011;8162;47.104;15.432;2024-02-23T07:50:15;3.17;;;2.87;;
16115;SDS011;8162;47.104;15.432;2024-02-23T07:53:18;4.27;;;3.13;;
16115;SDS011;8162;47.104;15.432;2024-02-23T07:56:19;6.23;;;3.20;;
16115;SDS011;8162;47.104;15.432;2024-02-23T07:59:20;6.63;;;3.30;;
16115;SDS011;8162;47.104;15.432;2024-02-23T08:02:21;3.10;;;2.37;;
16115;SDS011;8162;47.104;15.432;2024-02-23T08:05:22;3.50;;;2.60;;
16115;SDS011;8162;47.104;15.432;2024-02-23T08:08:23;3.00;;;2.50;;
16115;SDS011;8162;47.104;15.432;2024-02-23T08:11:27;3.10;;;2.50;;
16115;SDS011;8162;47.104;15.432;2024-02-23T08:14:28;2.57;;;2.30;;
16115;SDS011;8162;47.104;15.432;2024-02-23T08:17:29;2.70;;;2.50;;
16115;SDS011;8162;47.104;15.432;2024-02-23T08:20:30;3.53;;;2.37;;
16115;SDS011;8162;47.104;15.432;2024-02-23T08:23:31;3.70;;;3.17;;
16115;SDS011;8162;47.104;15.432;2024-02-23T08:26:32;3.37;;;2.83;;
16115;SDS011;8162;47.104;15.432;2024-02-23T08:29:37;3.40;;;2.70;;
16115;SDS011;8162;47.104;15.432;2024-02-23T08:32:38;3.10;;;2.50;;
16115;SDS011;8162;47.104;15.432;2024-02-23T08:35:39;3.30;;;2.50;;
16115;SDS011;8162;47.104;15.432;2024-02-23T08:38:40;4.10;;;3.27;;
16115;SDS011;8162;47.104;15.432;2024-02-23T08:41:41;3.23;;;2.83;;
16115;SDS011;8162;47.104;15.432;2024-02-23T08:44:42;4.83;;;2.80;;
16115;SDS011;8162;47.104;15.432;2024-02-23T08:47:43;5.67;;;2.70;;
16115;SDS011;8162;47.104;15.432;2024-02-23T08:50:44;4.20;;;2.60;;
16115;SDS011;8162;47.104;15.432;2024-02-23T08:53:46;7.37;;;4.27;;
16115;SDS011;8162;47.104;15.432;2024-02-23T08:56:47;3.30;;;2.80;;
16115;SDS011;8162;47.104;15.432;2024-02-23T08:59:48;4.43;;;3.60;;
16115;SDS011;8162;47.104;15.432;2024-02-23T09:02:49;4.60;;;4.03;;
16115;SDS011;8162;47.104;15.432;2024-02-23T09:05:50;4.83;;;3.77;;
16115;SDS011;8162;47.104;15.432;2024-02-23T09:08:51;4.73;;;3.90;;
16115;SDS011;8162;47.104;15.432;2024-02-23T09:11:52;5.50;;;3.97;;
16115;SDS011;8162;47.104;15.432;2024-02-23T09:14:53;6.00;;;3.97;;
16115;SDS011;8162;47.104;15.432;2024-02-23T09:17:55;6.17;;;3.70;;
16115;SDS011;8162;47.104;15.432;2024-02-23T09:20:56;4.37;;;3.97;;
16115;SDS011;8162;47.104;15.432;2024-02-23T09:23:57;4.77;;;4.10;;
16115;SDS011;8162;47.104;15.432;2024-02-23T09:26:58;3.60;;;3.30;;
16115;SDS011;8162;47.104;15.432;2024-02-23T09:29:59;3.83;;;2.60;;
16115;SDS011;8162;47.104;15.432;2024-02-23T09:33:00;2.63;;;2.20;;
16115;SDS011;8162;47.104;15.432;2024-02-23T09:36:02;4.57;;;3.17;;
16115;SDS011;8162;47.104;15.432;2024-02-23T09:39:03;2.87;;;2.67;;
16115;SDS011;8162;47.104;15.432;2024-02-23T09:42:06;3.40;;;2.83;;
16115;SDS011;8162;47.104;15.432;2024-02-23T09:45:10;4.33;;;2.83;;
16115;SDS011;8162;47.104;15.432;2024-02-23T09:48:12;4.57;;;3.30;;
16115;SDS011;8162;47.104;15.432;2024-02-23T09:51:15;3.80;;;3.20;;
16115;SDS011;8162;47.104;15.432;2024-02-23T09:54:17;3.83;;;3.50;;
16115;SDS011;8162;47.104;15.432;2024-02-23T09:57:18;4.87;;;3.30;;
16115;SDS011;8162;47.104;15.432;2024-02-23T10:00:19;4.40;;;3.93;;
16115;SDS011;8162;47.104;15.432;2024-02-23T10:03:21;4.70;;;3.23;;
16115;SDS011;8162;47.104;15.432;2024-02-23T10:06:26;2.80;;;2.60;;
16115;SDS011;8162;47.104;15.432;2024-02-23T10:09:27;3.10;;;2.73;;
16115;SDS011;8162;47.104;15.432;2024-02-23T10:12:28;2.60;;;2.40;;
16115;SDS011;8162;47.104;15.432;2024-02-23T10:15:29;3.13;;;1.80;;
16115;SDS011;8162;47.104;15.432;2024-02-23T10:18:33;2.30;;;1.80;;
16115;SDS011;8162;47.104;15.432;2024-02-23T10:21:34;2.23;;;1.60;;
16115;SDS011;8162;47.104;15.432;2024-02-23T10:24:36;1.97;;;1.53;;
16115;SDS011;8162;47.104;15.432;2024-02-23T10:27:37;3.17;;;1.53;;
16115;SDS011;8162;47.104;15.432;2024-02-23T10:30:38;1.90;;;1.60;;
16115;SDS011;8162;47.104;15.432;2024-02-23T10:33:39;1.87;;;1.67;;
16115;SDS011;8162;47.104;15.432;2024-02-23T10:36:41;1.90;;;1.50;;
16115;SDS011;8162;47.104;15.432;2024-02-23T10:39:43;2.57;;;1.90;;
16115;SDS011;8162;47.104;15.432;2024-02-23T10:42:44;2.67;;;2.00;;
16115;SDS011;8162;47.104;15.432;2024-02-23T10:45:53;2.10;;;1.90;;
16115;SDS011;8162;47.104;15.432;2024-02-23T10:48:55;1.93;;;1.70;;
16115;SDS011;8162;47.104;15.432;2024-02-23T10:51:56;2.10;;;1.90;;
16115;SDS011;8162;47.104;15.432;2024-02-23T10:54:58;2.63;;;2.10;;
16115;SDS011;8162;47.104;15.432;2024-02-23T10:58:03;2.70;;;2.07;;
16115;SDS011;8162;47.104;15.432;2024-02-23T11:01:07;2.17;;;1.97;;
16115;SDS011;8162;47.104;15.432;2024-02-23T11:04:10;5.03;;;2.03;;
16115;SDS011;8162;47.104;15.432;2024-02-23T11:07:14;1.90;;;1.67;;
16115;SDS011;8162;47.104;15.432;2024-02-23T11:10:15;2.10;;;1.80;;
16115;SDS011;8162;47.104;15.432;2024-02-23T11:13:17;1.73;;;1.60;;
16115;SDS011;8162;47.104;15.432;2024-02-23T11:16:22;2.53;;;2.10;;
16115;SDS011;8162;47.104;15.432;2024-02-23T11:19:31;3.17;;;1.90;;
16115;SDS011;8162;47.104;15.432;2024-02-23T11:22:33;4.13;;;2.10;;
16115;SDS011;8162;47.104;15.432;2024-02-23T11:25:35;3.27;;;2.27;;
16115;SDS011;8162;47.104;15.432;2024-02-23T11:28:48;2.00;;;1.80;;
16115;SDS011;8162;47.104;15.432;2024-02-23T11:31:51;2.20;;;2.00;;
16115;SDS011;8162;47.104;15.432;2024-02-23T11:34:56;2.40;;;2.07;;
16115;SDS011;8162;47.104;15.432;2024-02-23T11:37:58;1.77;;;1.63;;
16115;SDS011;8162;47.104;15.432;2024-02-23T11:41:04;3.00;;;1.97;;
16115;SDS011;8162;47.104;15.432;2024-02-23T11:44:05;2.33;;;2.13;;
16115;SDS011;8162;47.104;15.432;2024-02-23T11:47:07;2.33;;;2.13;;
16115;SDS011;8162;47.104;15.432;2024-02-23T11:50:08;3.73;;;2.50;;
16115;SDS011;8162;47.104;15.432;2024-02-23T11:53:10;3.10;;;2.10;;
16115;SDS011;8162;47.104;15.432;2024-02-23T11:56:11;2.17;;;2.07;;
16115;SDS011;8162;47.104;15.432;2024-02-23T11:59:13;2.30;;;1.90;;
16115;SDS011;8162;47.104;15.432;2024-02-23T12:02:14;5.07;;;2.40;;
16115;SDS011;8162;47.104;15.432;2024-02-23T12:05:15;2.17;;;1.97;;
16115;SDS011;8162;47.104;15.432;2024-02-23T12:08:16;2.23;;;2.03;;
16115;SDS011;8162;47.104;15.432;2024-02-23T12:11:18;2.50;;;2.30;;
16115;SDS011;8162;47.104;15.432;2024-02-23T12:14:20;2.50;;;2.30;;
16115;SDS011;8162;47.104;15.432;2024-02-23T12:17:21;2.87;;;2.40;;
16115;SDS011;8162;47.104;15.432;2024-02-23T12:20:22;2.47;;;2.27;;
16115;SDS011;8162;47.104;15.432;2024-02-23T12:23:23;2.80;;;2.60;;
16115;SDS011;8162;47.104;15.432;2024-02-23T12:26:24;3.63;;;2.17;;
16115;SDS011;8162;47.104;15.432;2024-02-23T12:29:25;3.10;;;2.80;;
16115;SDS011;8162;47.104;15.432;2024-02-23T12:32:27;3.07;;;2.77;;
16115;SDS011;8162;47.104;15.432;2024-02-23T12:35:28;2.80;;;2.47;;
16115;SDS011;8162;47.104;15.432;2024-02-23T12:38:30;2.90;;;2.70;;
16115;SDS011;8162;47.104;15.432;2024-02-23T12:41:32;3.67;;;3.00;;
16115;SDS011;8162;47.104;15.432;2024-02-23T12:44:33;3.00;;;2.70;;
16115;SDS011;8162;47.104;15.432;2024-02-23T12:47:34;3.13;;;2.60;;
16115;SDS011;8162;47.104;15.432;2024-02-23T12:50:35;3.53;;;2.93;;
16115;SDS011;8162;47.104;15.432;2024-02-23T12:53:37;3.20;;;2.90;;
16115;SDS011;8162;47.104;15.432;2024-02-23T12:56:38;3.07;;;2.77;;
16115;SDS011;8162;47.104;15.432;2024-02-23T12:59:39;4.07;;;2.83;;
16115;SDS011;8162;47.104;15.432;2024-02-23T13:02:40;3.53;;;2.90;;
16115;SDS011;8162;47.104;15.432;2024-02-23T13:05:41;2.77;;;2.43;;
16115;SDS011;8162;47.104;15.432;2024-02-23T13:08:42;3.07;;;2.77;;
16115;SDS011;8162;47.104;15.432;2024-02-23T13:11:43;5.43;;;2.60;;
16115;SDS011;8162;47.104;15.432;2024-02-23T13:14:45;3.50;;;2.53;;
16115;SDS011;8162;47.104;15.432;2024-02-23T13:17:46;3.77;;;2.70;;
16115;SDS011;8162;47.104;15.432;2024-02-23T13:20:47;2.93;;;2.63;;
16115;SDS011;8162;47.104;15.432;2024-02-23T13:23:49;3.30;;;3.00;;
16115;SDS011;8162;47.104;15.432;2024-02-23T13:26:50;4.03;;;2.87;;
16115;SDS011;8162;47.104;15.432;2024-02-23T13:29:51;4.43;;;2.90;;
16115;SDS011;8162;47.104;15.432;2024-02-23T13:32:52;4.17;;;2.60;;
16115;SDS011;8162;47.104;15.432;2024-02-23T13:35:53;4.07;;;3.00;;
16115;SDS011;8162;47.104;15.432;2024-02-23T13:38:55;2.97;;;2.77;;
16115;SDS011;8162;47.104;15.432;2024-02-23T13:41:56;3.93;;;3.27;;
16115;SDS011;8162;47.104;15.432;2024-02-23T13:44:57;4.33;;;3.20;;
16115;SDS011;8162;47.104;15.432;2024-02-23T13:47:59;3.60;;;3.30;;
16115;SDS011;8162;47.104;15.432;2024-02-23T13:51:00;4.77;;;3.23;;
16115;SDS011;8162;47.104;15.432;2024-02-23T13:54:03;3.90;;;3.00;;
16115;SDS011;8162;47.104;15.432;2024-02-23T13:57:04;4.00;;;3.10;;
16115;SDS011;8162;47.104;15.432;2024-02-23T14:00:05;5.00;;;4.30;;
16115;SDS011;8162;47.104;15.432;2024-02-23T14:03:16;4.60;;;4.20;;
16115;SDS011;8162;47.104;15.432;2024-02-23T14:06:21;5.27;;;4.77;;
16115;SDS011;8162;47.104;15.432;2024-02-23T14:09:22;7.00;;;5.67;;
16115;SDS011;8162;47.104;15.432;2024-02-23T14:12:23;6.40;;;5.40;;
16115;SDS011;8162;47.104;15.432;2024-02-23T14:15:24;5.80;;;5.20;;
16115;SDS011;8162;47.104;15.432;2024-02-23T14:18:26;5.27;;;4.77;;
16115;SDS011;8162;47.104;15.432;2024-02-23T14:21:27;4.40;;;4.00;;
16115;SDS011;8162;47.104;15.432;2024-02-23T14:24:29;5.03;;;4.57;;
16115;SDS011;8162;47.104;15.432;2024-02-23T14:27:30;5.20;;;4.70;;
16115;SDS011;8162;47.104;15.432;2024-02-23T14:30:31;5.43;;;4.70;;
16115;SDS011;8162;47.104;15.432;2024-02-23T14:33:32;5.37;;;4.80;;
16115;SDS011;8162;47.104;15.432;2024-02-23T14:36:33;5.47;;;4.63;;
16115;SDS011;8162;47.104;15.432;2024-02-23T14:39:34;5.10;;;4.60;;
16115;SDS011;8162;47.104;15.432;2024-02-23T14:42:36;8.20;;;5.53;;
16115;SDS011;8162;47.104;15.432;2024-02-23T14:45:37;7.17;;;5.63;;
16115;SDS011;8162;47.104;15.432;2024-02-23T14:48:38;8.30;;;5.83;;
16115;SDS011;8162;47.104;15.432;2024-02-23T14:51:39;5.50;;;5.00;;
16115;SDS011;8162;47.104;15.432;2024-02-23T14:54:42;6.33;;;5.13;;
16115;SDS011;8162;47.104;15.432;2024-02-23T14:57:43;5.63;;;4.60;;
16115;SDS011;8162;47.104;15.432;2024-02-23T15:00:44;5.37;;;4.87;;
16115;SDS011;8162;47.104;15.432;2024-02-23T15:03:47;6.13;;;4.57;;
16115;SDS011;8162;47.104;15.432;2024-02-23T15:06:48;5.27;;;4.77;;
16115;SDS011;8162;47.104;15.432;2024-02-23T15:09:49;6.53;;;5.17;;
16115;SDS011;8162;47.104;15.432;2024-02-23T15:12:50;6.77;;;4.67;;
16115;SDS011;8162;47.104;15.432;2024-02-23T15:15:51;5.20;;;4.70;;
16115;SDS011;8162;47.104;15.432;2024-02-23T15:18:53;4.97;;;4.23;;
16115;SDS011;8162;47.104;15.432;2024-02-23T15:21:54;6.93;;;5.63;;
16115;SDS011;8162;47.104;15.432;2024-02-23T15:24:55;4.83;;;4.33;;
16115;SDS011;8162;47.104;15.432;2024-02-23T15:27:59;5.87;;;4.93;;
16115;SDS011;8162;47.104;15.432;2024-02-23T15:31:00;5.70;;;5.20;;
16115;SDS011;8162;47.104;15.432;2024-02-23T15:34:03;5.13;;;4.33;;
16115;SDS011;8162;47.104;15.432;2024-02-23T15:37:04;5.63;;;4.90;;
16115;SDS011;8162;47.104;15.432;2024-02-23T15:40:05;5.00;;;4.50;;
16115;SDS011;8162;47.104;15.432;2024-02-23T15:43:06;5.93;;;4.50;;
16115;SDS011;8162;47.104;15.432;2024-02-23T15:46:07;4.67;;;4.20;;
16115;SDS011;8162;47.104;15.432;2024-02-23T15:49:08;6.50;;;5.00;;
16115;SDS011;8162;47.104;15.432;2024-02-23T15:52:09;5.07;;;4.00;;
16115;SDS011;8162;47.104;15.432;2024-02-23T15:55:10;9.90;;;4.93;;
16115;SDS011;8162;47.104;15.432;2024-02-23T15:58:12;5.03;;;4.17;;
16115;SDS011;8162;47.104;15.432;2024-02-23T16:01:16;5.10;;;4.60;;
16115;SDS011;8162;47.104;15.432;2024-02-23T16:04:17;6.70;;;4.80;;
16115;SDS011;8162;47.104;15.432;2024-02-23T16:07:18;5.30;;;4.80;;
16115;SDS011;8162;47.104;15.432;2024-02-23T16:10:19;6.15;;;5.47;;
16115;SDS011;8162;47.104;15.432;2024-02-23T16:13:20;5.67;;;5.00;;
16115;SDS011;8162;47.104;15.432;2024-02-23T16:16:21;6.00;;;5.37;;
16115;SDS011;8162;47.104;15.432;2024-02-23T16:19:22;6.80;;;5.27;;
16115;SDS011;8162;47.104;15.432;2024-02-23T16:22:23;5.63;;;4.60;;
16115;SDS011;8162;47.104;15.432;2024-02-23T16:25:24;5.13;;;4.67;;
16115;SDS011;8162;47.104;15.432;2024-02-23T16:28:25;6.03;;;5.43;;
16115;SDS011;8162;47.104;15.432;2024-02-23T16:31:26;6.37;;;5.07;;
16115;SDS011;8162;47.104;15.432;2024-02-23T16:34:28;5.70;;;5.20;;
16115;SDS011;8162;47.104;15.432;2024-02-23T16:37:29;5.17;;;4.67;;
16115;SDS011;8162;47.104;15.432;2024-02-23T16:40:31;5.90;;;5.23;;
16115;SDS011;8162;47.104;15.432;2024-02-23T16:43:32;5.27;;;4.77;;
16115;SDS011;8162;47.104;15.432;2024-02-23T16:46:33;5.50;;;4.93;;
16115;SDS011;8162;47.104;15.432;2024-02-23T16:49:35;7.63;;;4.73;;
16115;SDS011;8162;47.104;15.432;2024-02-23T16:52:36;5.63;;;4.93;;
16115;SDS011;8162;47.104;15.432;2024-02-23T16:55:37;6.03;;;5.43;;
16115;SDS011;8162;47.104;15.432;2024-02-23T16:58:38;6.53;;;5.53;;
16115;SDS011;8162;47.104;15.432;2024-02-23T17:01:39;7.27;;;5.40;;
16115;SDS011;8162;47.104;15.432;2024-02-23T17:04:42;6.23;;;5.63;;
16115;SDS011;8162;47.104;15.432;2024-02-23T17:07:43;6.20;;;4.80;;
16115;SDS011;8162;47.104;15.432;2024-02-23T17:10:44;6.33;;;5.73;;
16115;SDS011;8162;47.104;15.432;2024-02-23T17:13:45;6.37;;;5.47;;
16115;SDS011;8162;47.104;15.432;2024-02-23T17:16:46;6.10;;;5.40;;
16115;SDS011;8162;47.104;15.432;2024-02-23T17:19:48;6.20;;;5.13;;
16115;SDS011;8162;47.104;15.432;2024-02-23T17:22:49;6.23;;;5.10;;
16115;SDS011;8162;47.104;15.432;2024-02-23T17:25:50;6.47;;;5.53;;
16115;SDS011;8162;47.104;15.432;2024-02-23T17:28:51;7.10;;;5.37;;
16115;SDS011;8162;47.104;15.432;2024-02-23T17:31:52;6.67;;;5.67;;
16115;SDS011;8162;47.104;15.432;2024-02-23T17:34:53;6.10;;;5.50;;
16115;SDS011;8162;47.104;15.432;2024-02-23T17:37:54;8.73;;;6.03;;
16115;SDS011;8162;47.104;15.432;2024-02-23T17:40:55;8.83;;;6.00;;
16115;SDS011;8162;47.104;15.432;2024-02-23T17:43:57;7.33;;;5.50;;
16115;SDS011;8162;47.104;15.432;2024-02-23T17:46:58;6.87;;;5.87;;
16115;SDS011;8162;47.104;15.432;2024-02-23T17:50:00;10.23;;;6.03;;
16115;SDS011;8162;47.104;15.432;2024-02-23T17:53:01;9.00;;;6.63;;
16115;SDS011;8162;47.104;15.432;2024-02-23T17:56:02;7.83;;;6.87;;
16115;SDS011;8162;47.104;15.432;2024-02-23T17:59:03;8.17;;;6.30;;
16115;SDS011;8162;47.104;15.432;2024-02-23T18:02:05;14.17;;;7.23;;
16115;SDS011;8162;47.104;15.432;2024-02-23T18:05:06;7.87;;;7.07;;
16115;SDS011;8162;47.104;15.432;2024-02-23T18:08:08;7.87;;;6.63;;
16115;SDS011;8162;47.104;15.432;2024-02-23T18:11:09;6.97;;;5.93;;
16115;SDS011;8162;47.104;15.432;2024-02-23T18:14:10;8.10;;;6.37;;